Main page
METAR-TAF:

METAR-TAF

Airports :

Phitsanulok Airport

Phitsanulok, Thailand

latitude: 16-46-23N, longitude: 100-16-56E, elevation: 47 m

Current weather observation

The report was made 4 hours and 50 minutes ago, at 15:00 UTC
Wind 2 kt from variable directions
Temperature 23°C
Humidity 100%
Pressure 1012 hPa
Visibility 10 km or more
Few clouds at a height of 3000 ft

METAR: VTPP 011500Z VRB02KT 9999 FEW030 23/23 Q1012 NOSIG

Time: 02:50 (19:50 UTC)

Forecast

The report was made 2 hours and 50 minutes ago, at 17:00 UTC
Forecast valid from 01 at 18 UTC to 02 at 18 UTC
Wind 5 kt from the South
Visibility 10 km or more
Few clouds at a height of 3000 ft

TAF: VTPP 011700Z 0118/0218 18005KT 9999 FEW030

Weather observations and forecasts of more than 4000 airports (METAR and TAF reports).

The available stations are represented by yellow and red dots on the map.

Hover mouse over dot to see the name of the station.

Then click to see weather observations and forecasts.

To change the map : click on the green buttons with a black cross to zoom in, on the green button with a dash to zoom out, or on the green arrows for adjacent maps.


METAR-TAF: